17  °C
Temperature
63  °F
Temperature
41  °F
 Dewpoint
5  °C
  Dewpoint
45  %
 Humidity
  Temperature
19  km/h
Wind Speed
10  kts
Wind Speed
12  mph
Wind Speed
5.4  m/s
Wind Speed
260°
Due West

Wind Speed
Clear
Conditions
Pressure 1013.92 (hPa) - 29.94 (inHG)
Visibility 10.0 (km) - 6.2 (mi)

Sky Conditions
LELL
Location Sabadell 8 km (4.97 mi)
Metar :LELL 121000Z 26010KT CAVOK 17/05 Q1014
Fri 12th April 12:00 pm

Nearest Airport
https://www.checkwx.com/weather/LELL
  Metar Aviation API Data Provided by https://www.checkwx.com/ Original CSS/SVG/PHP scripts by weather34.com © 2015-2019